Time;durP1;ratioP1;P1;durP2;ratioP2;P2;SDS_P1;SDS_P2;PMS_P1;PMS_P2;Temp;Humidity;BMP_temperature;BMP_pressure;BME280_temperature;BME280_humidity;BME280_pressure;Samples;Min_cycle;Max_cycle;Signal;HPM_P1;HPM_P2
2021/04/25 00:00:43;;;;;;;14.77;6.60;;;7.40;99.90;;;;;;5015449;28;20111;-69
2021/04/25 00:03:08;;;;;;;11.07;6.55;;;7.30;99.90;;;;;;5014567;28;20026;-69
2021/04/25 00:05:34;;;;;;;11.05;6.88;;;7.30;99.90;;;;;;5014864;28;20033;-69
2021/04/25 00:08:00;;;;;;;11.38;6.82;;;7.30;99.90;;;;;;5015376;28;20029;-69
2021/04/25 00:10:26;;;;;;;10.38;6.07;;;7.20;99.90;;;;;;5015300;28;20022;-69
2021/04/25 00:12:52;;;;;;;12.75;7.05;;;7.10;99.90;;;;;;5014809;28;20480;-69
2021/04/25 00:15:22;;;;;;;12.77;7.22;;;7.00;99.90;;;;;;5014791;28;20532;-70
2021/04/25 00:17:49;;;;;;;14.52;7.75;;;7.00;99.90;;;;;;5015119;28;20369;-69
2021/04/25 00:20:15;;;;;;;14.98;7.50;;;7.00;99.90;;;;;;5014966;28;20096;-70
2021/04/25 00:22:41;;;;;;;14.38;6.93;;;7.00;99.90;;;;;;5014091;28;20035;-71
2021/04/25 00:25:09;;;;;;;16.85;7.65;;;6.90;99.90;;;;;;4997058;28;20468;-69
2021/04/25 00:27:35;;;;;;;14.73;7.70;;;7.00;99.90;;;;;;5014767;28;20566;-69
2021/04/25 00:30:01;;;;;;;14.00;7.20;;;6.90;99.90;;;;;;5014773;28;20109;-68
2021/04/25 00:32:27;;;;;;;17.20;7.28;;;6.90;99.90;;;;;;5014842;28;20033;-69
2021/04/25 00:34:53;;;;;;;16.63;6.88;;;6.90;99.90;;;;;;5014181;28;20022;-69
2021/04/25 00:37:19;;;;;;;13.38;7.20;;;6.80;99.90;;;;;;5014341;28;20026;-69
2021/04/25 00:39:45;;;;;;;14.02;7.22;;;6.70;99.90;;;;;;5014850;28;20029;-70
2021/04/25 00:42:14;;;;;;;12.40;6.65;;;6.70;99.90;;;;;;5014652;28;20365;-69
2021/04/25 00:44:41;;;;;;;12.38;7.30;;;6.60;99.90;;;;;;5013935;28;20079;-69
2021/04/25 00:47:06;;;;;;;14.45;6.97;;;6.60;99.90;;;;;;5014296;28;20030;-69
2021/04/25 00:49:32;;;;;;;14.60;6.75;;;6.60;99.90;;;;;;5014723;28;20152;-69
2021/04/25 00:51:58;;;;;;;16.10;7.28;;;6.60;99.90;;;;;;5014236;28;20491;-70
2021/04/25 00:54:24;;;;;;;14.35;6.80;;;6.50;99.90;;;;;;5026066;28;20048;-71
2021/04/25 00:56:50;;;;;;;17.30;7.53;;;6.40;99.90;;;;;;5043527;28;20022;-71
2021/04/25 00:59:16;;;;;;;13.27;6.90;;;6.40;99.90;;;;;;5034333;28;20434;-69
2021/04/25 01:01:42;;;;;;;12.85;7.28;;;6.40;99.90;;;;;;5034105;28;20032;-68
2021/04/25 01:04:07;;;;;;;13.88;7.65;;;6.40;99.90;;;;;;5033413;28;20448;-69
2021/04/25 01:06:33;;;;;;;12.57;6.85;;;6.40;99.90;;;;;;5033761;28;20029;-70
2021/04/25 01:08:58;;;;;;;17.30;7.22;;;6.40;99.90;;;;;;5033977;28;20057;-70
2021/04/25 01:11:25;;;;;;;12.90;7.55;;;6.30;99.90;;;;;;5033915;28;20120;-70
2021/04/25 01:13:51;;;;;;;13.02;6.97;;;6.30;99.90;;;;;;5033481;28;20021;-71
2021/04/25 01:16:18;;;;;;;13.45;7.53;;;6.30;99.90;;;;;;5033720;28;20083;-70
2021/04/25 01:18:44;;;;;;;14.75;6.70;;;6.30;99.90;;;;;;5034100;28;20328;-70
2021/04/25 01:21:09;;;;;;;15.68;7.90;;;6.30;99.90;;;;;;5033820;28;20022;-70
2021/04/25 01:23:35;;;;;;;13.68;7.78;;;6.20;99.90;;;;;;5031993;28;20030;-69
2021/04/25 01:26:02;;;;;;;13.13;7.00;;;6.20;99.90;;;;;;5014596;28;20061;-68
2021/04/25 01:28:28;;;;;;;14.32;7.28;;;6.20;99.90;;;;;;5013971;28;20498;-70
2021/04/25 01:30:55;;;;;;;11.45;6.82;;;6.20;99.90;;;;;;5013989;28;20026;-70
2021/04/25 01:33:22;;;;;;;14.27;7.57;;;6.10;99.90;;;;;;5013250;28;20018;-70
2021/04/25 01:35:48;;;;;;;14.32;6.78;;;6.20;99.90;;;;;;5013566;28;20026;-70
2021/04/25 01:38:13;;;;;;;13.75;6.88;;;6.20;99.90;;;;;;5013722;28;20041;-71
2021/04/25 01:40:39;;;;;;;14.10;6.75;;;6.10;99.90;;;;;;5013946;28;20080;-70
2021/04/25 01:43:05;;;;;;;12.43;7.25;;;6.10;99.90;;;;;;5012812;28;20025;-69
2021/04/25 01:45:31;;;;;;;11.85;7.32;;;6.10;99.90;;;;;;5013330;28;20084;-69
2021/04/25 01:48:05;;;;;;;14.00;7.32;;;6.00;99.90;;;;;;5016560;28;20503;-71
2021/04/25 01:50:31;;;;;;;11.18;6.13;;;5.90;99.90;;;;;;5013718;28;20026;-70
2021/04/25 01:52:58;;;;;;;15.55;7.10;;;6.00;99.90;;;;;;5012591;28;20037;-71
2021/04/25 01:55:25;;;;;;;11.02;6.65;;;6.00;99.90;;;;;;4995819;28;20045;-70
2021/04/25 01:57:51;;;;;;;13.95;6.93;;;6.00;99.90;;;;;;5013225;28;20029;-70
2021/04/25 02:00:23;;;;;;;16.58;7.18;;;6.00;99.90;;;;;;5013309;28;20079;-70
2021/04/25 02:02:53;;;;;;;14.15;7.38;;;6.00;99.90;;;;;;5012760;28;20030;-71
2021/04/25 02:05:20;;;;;;;16.15;7.57;;;5.90;99.90;;;;;;4995418;28;20041;-70
2021/04/25 02:07:46;;;;;;;16.98;7.80;;;5.80;99.90;;;;;;5011927;28;20044;-70
2021/04/25 02:10:12;;;;;;;12.23;6.57;;;5.70;99.90;;;;;;5013038;28;20480;-73
2021/04/25 02:12:38;;;;;;;16.63;7.57;;;5.60;99.90;;;;;;5012521;28;20044;-70
2021/04/25 02:15:06;;;;;;;16.52;6.93;;;5.60;99.90;;;;;;5012892;28;20484;-69
2021/04/25 02:17:32;;;;;;;13.05;7.30;;;5.60;99.90;;;;;;5012796;28;20480;-68
2021/04/25 02:19:58;;;;;;;17.70;7.47;;;5.60;99.90;;;;;;5012876;28;20104;-70
2021/04/25 02:22:25;;;;;;;17.25;7.90;;;5.60;99.90;;;;;;5012605;28;20373;-71
2021/04/25 02:24:51;;;;;;;13.43;6.72;;;5.50;99.90;;;;;;5011778;28;20068;-71
2021/04/25 02:27:16;;;;;;;11.15;6.70;;;5.50;99.90;;;;;;4994954;28;20349;-70
2021/04/25 02:29:42;;;;;;;15.93;7.07;;;5.50;99.90;;;;;;5012893;28;20473;-70
2021/04/25 02:32:07;;;;;;;15.75;7.70;;;5.50;99.90;;;;;;5012812;28;20051;-70
2021/04/25 02:34:33;;;;;;;13.85;7.07;;;5.40;99.90;;;;;;5014153;28;20022;-69
2021/04/25 02:36:59;;;;;;;13.77;7.35;;;5.40;99.90;;;;;;5014309;28;20080;-70
2021/04/25 02:39:25;;;;;;;17.25;7.03;;;5.30;99.90;;;;;;5012446;28;20025;-69
2021/04/25 02:41:51;;;;;;;12.15;6.97;;;5.20;99.90;;;;;;5012643;28;20415;-70
2021/04/25 02:44:16;;;;;;;16.13;7.80;;;5.20;99.90;;;;;;5011850;28;20021;-70
2021/04/25 02:46:42;;;;;;;17.92;7.85;;;5.10;99.90;;;;;;5012878;28;20037;-70
2021/04/25 02:49:07;;;;;;;19.65;8.75;;;5.10;99.90;;;;;;5012959;28;20049;-70
2021/04/25 02:51:34;;;;;;;14.43;8.02;;;5.10;99.90;;;;;;5012480;28;20178;-70
2021/04/25 02:53:59;;;;;;;18.30;8.35;;;5.10;99.90;;;;;;5011833;28;20057;-69
2021/04/25 02:56:25;;;;;;;16.48;8.45;;;5.00;99.90;;;;;;5012725;28;20121;-71
2021/04/25 02:58:51;;;;;;;13.40;7.80;;;5.00;99.90;;;;;;5012853;28;20030;-70
2021/04/25 03:01:16;;;;;;;13.27;7.70;;;5.00;99.90;;;;;;4995000;28;20637;-70
2021/04/25 03:03:42;;;;;;;16.05;7.45;;;5.00;99.90;;;;;;5011593;28;20087;-71
2021/04/25 03:06:08;;;;;;;15.32;8.13;;;4.90;99.90;;;;;;5011682;28;20053;-70
2021/04/25 03:08:33;;;;;;;10.60;7.65;;;4.90;99.90;;;;;;5012172;28;20022;-70
2021/04/25 03:10:59;;;;;;;17.23;7.72;;;4.90;99.90;;;;;;5012193;28;20021;-70
2021/04/25 03:13:25;;;;;;;13.95;7.55;;;4.90;99.90;;;;;;5018312;28;20033;-71
2021/04/25 03:15:50;;;;;;;15.88;7.93;;;4.90;99.90;;;;;;5021427;28;20477;-70
2021/04/25 03:18:16;;;;;;;13.93;8.63;;;5.00;99.90;;;;;;5015638;28;20034;-72
2021/04/25 03:20:42;;;;;;;14.20;8.50;;;4.90;99.90;;;;;;5010755;28;20026;-68
2021/04/25 03:23:07;;;;;;;13.90;8.38;;;4.90;99.90;;;;;;5010871;28;20399;-70
2021/04/25 03:25:33;;;;;;;15.25;8.32;;;4.80;99.90;;;;;;5011756;28;20121;-70
2021/04/25 03:28:00;;;;;;;14.63;7.97;;;4.80;99.90;;;;;;5033780;22;20498;-72
2021/04/25 03:30:26;;;;;;;15.25;8.52;;;4.70;99.90;;;;;;5030724;28;20025;-72
2021/04/25 03:32:52;;;;;;;20.70;9.50;;;4.60;99.90;;;;;;5030648;28;20025;-72
2021/04/25 03:35:18;;;;;;;14.60;7.70;;;4.60;99.90;;;;;;5013671;28;20024;-72
2021/04/25 03:37:45;;;;;;;13.90;7.63;;;4.60;99.90;;;;;;5023263;28;20029;-71
2021/04/25 03:40:15;;;;;;;17.25;7.72;;;4.60;99.90;;;;;;5012488;28;20472;-72
2021/04/25 03:42:41;;;;;;;19.30;8.60;;;4.60;99.90;;;;;;5010683;28;20026;-72
2021/04/25 03:45:15;;;;;;;16.85;8.63;;;4.60;99.90;;;;;;5011265;28;20062;-72
2021/04/25 03:47:45;;;;;;;16.75;8.65;;;4.60;99.90;;;;;;5011413;28;20029;-72
2021/04/25 03:50:12;;;;;;;14.27;7.22;;;4.60;99.90;;;;;;4993766;28;20014;-72
2021/04/25 03:52:40;;;;;;;17.92;8.10;;;4.40;99.90;;;;;;4993291;28;20034;-72
2021/04/25 03:55:06;;;;;;;20.60;8.82;;;4.50;99.90;;;;;;5011742;28;20435;-72
2021/04/25 03:57:32;;;;;;;14.65;8.07;;;4.50;99.90;;;;;;5010980;28;20484;-72
2021/04/25 03:59:58;;;;;;;15.93;8.32;;;4.50;99.90;;;;;;5011468;28;20034;-72
2021/04/25 04:02:23;;;;;;;15.65;8.30;;;4.50;99.90;;;;;;4994051;28;20031;-72
2021/04/25 04:04:49;;;;;;;17.95;8.20;;;4.50;99.90;;;;;;5010679;28;20029;-72
2021/04/25 04:07:15;;;;;;;19.65;8.30;;;4.40;99.90;;;;;;5011190;28;20037;-72
2021/04/25 04:09:40;;;;;;;12.88;8.55;;;4.40;99.90;;;;;;5011442;28;20032;-72
2021/04/25 04:12:07;;;;;;;18.92;8.52;;;4.50;99.90;;;;;;5010936;28;20098;-72
2021/04/25 04:14:33;;;;;;;15.88;8.18;;;4.40;99.90;;;;;;5010708;28;20076;-72
2021/04/25 04:16:58;;;;;;;13.18;8.02;;;4.40;99.90;;;;;;5016347;28;20627;-71
2021/04/25 04:19:25;;;;;;;15.55;8.63;;;4.50;99.90;;;;;;5016767;28;20053;-73
2021/04/25 04:21:50;;;;;;;16.88;8.23;;;4.50;99.90;;;;;;5015698;28;20039;-72
2021/04/25 04:24:16;;;;;;;15.68;8.40;;;4.40;99.90;;;;;;5012440;28;20030;-72
2021/04/25 04:26:42;;;;;;;13.60;8.02;;;4.40;99.90;;;;;;5019283;28;20045;-72
2021/04/25 04:29:08;;;;;;;16.65;8.18;;;4.30;99.90;;;;;;4997189;28;20480;-73
2021/04/25 04:31:34;;;;;;;18.65;9.02;;;4.40;99.90;;;;;;4999473;28;20037;-73
2021/04/25 04:33:59;;;;;;;14.98;8.38;;;4.50;99.90;;;;;;5015701;28;20097;-72
2021/04/25 04:36:25;;;;;;;15.45;8.23;;;4.50;99.90;;;;;;5021841;28;20310;-72
2021/04/25 04:38:51;;;;;;;14.27;8.98;;;4.60;99.90;;;;;;5017166;28;20419;-72
2021/04/25 04:41:16;;;;;;;14.80;7.88;;;4.60;99.90;;;;;;5017936;28;20022;-72
2021/04/25 04:43:42;;;;;;;19.85;8.60;;;4.60;99.90;;;;;;5022870;28;20080;-72
2021/04/25 04:46:08;;;;;;;16.02;8.50;;;4.70;99.90;;;;;;5023434;28;20022;-72
2021/04/25 04:48:34;;;;;;;13.43;8.88;;;4.70;99.90;;;;;;5004337;28;20029;-72
2021/04/25 04:50:59;;;;;;;18.27;8.52;;;4.70;99.90;;;;;;5001465;28;20037;-73
2021/04/25 04:53:25;;;;;;;13.02;7.70;;;4.60;99.90;;;;;;5003390;28;20022;-71
2021/04/25 04:55:51;;;;;;;15.05;8.10;;;4.70;99.90;;;;;;5002520;28;20480;-72
2021/04/25 04:58:16;;;;;;;20.10;8.70;;;4.70;99.90;;;;;;5019120;28;20022;-72
2021/04/25 05:00:42;;;;;;;12.75;8.07;;;4.70;99.90;;;;;;5017115;28;20030;-71
2021/04/25 05:03:08;;;;;;;19.88;8.57;;;4.70;99.90;;;;;;5019891;28;20030;-72
2021/04/25 05:05:33;;;;;;;17.45;8.98;;;4.70;99.90;;;;;;5017246;28;20061;-72
2021/04/25 05:07:59;;;;;;;12.60;7.47;;;4.70;99.90;;;;;;4997449;28;20030;-71
2021/04/25 05:10:25;;;;;;;13.70;7.80;;;4.70;99.90;;;;;;4996924;28;20484;-71
2021/04/25 05:12:51;;;;;;;14.00;8.20;;;4.80;99.90;;;;;;5015042;28;20049;-71
2021/04/25 05:15:17;;;;;;;17.77;8.40;;;4.80;99.90;;;;;;5017291;28;20125;-72
2021/04/25 05:17:42;;;;;;;22.90;8.75;;;4.80;99.90;;;;;;5015152;28;20032;-70
2021/04/25 05:20:09;;;;;;;11.85;8.07;;;4.80;99.90;;;;;;5014627;28;20022;-71
2021/04/25 05:22:34;;;;;;;18.45;9.48;;;4.80;99.90;;;;;;5014164;28;20018;-72
2021/04/25 05:25:00;;;;;;;14.98;8.25;;;4.90;99.90;;;;;;5013279;28;20416;-72
2021/04/25 05:27:26;;;;;;;11.35;8.02;;;4.90;99.90;;;;;;5006574;28;20103;-72
2021/04/25 05:29:52;;;;;;;18.80;7.93;;;5.00;99.90;;;;;;5011788;28;20037;-72
2021/04/25 05:32:17;;;;;;;15.32;7.57;;;5.10;99.90;;;;;;4994396;28;20026;-71
2021/04/25 05:34:43;;;;;;;12.45;8.18;;;5.10;99.90;;;;;;5030983;28;20040;-72
2021/04/25 05:37:08;;;;;;;16.40;7.80;;;5.10;99.90;;;;;;5033147;28;20036;-72
2021/04/25 05:39:34;;;;;;;12.93;8.27;;;5.30;99.90;;;;;;5013619;28;20110;-72
2021/04/25 05:42:00;;;;;;;17.23;7.63;;;5.30;99.90;;;;;;5030727;28;20026;-72
2021/04/25 05:44:27;;;;;;;18.55;7.95;;;5.30;99.90;;;;;;5028279;28;20436;-72
2021/04/25 05:46:54;;;;;;;10.80;7.60;;;5.40;99.90;;;;;;5011956;28;20030;-72
2021/04/25 05:49:20;;;;;;;13.50;8.45;;;5.50;99.90;;;;;;5010844;28;20444;-72
2021/04/25 05:51:46;;;;;;;13.60;7.97;;;5.60;99.90;;;;;;5010473;28;20562;-72
2021/04/25 05:54:12;;;;;;;19.63;8.70;;;5.60;99.90;;;;;;4992547;28;20069;-71
2021/04/25 05:56:37;;;;;;;14.88;8.13;;;5.70;99.90;;;;;;5010592;28;20030;-71
2021/04/25 05:59:03;;;;;;;18.42;8.05;;;5.80;99.90;;;;;;4992108;28;20051;-71
2021/04/25 06:01:29;;;;;;;17.98;9.18;;;5.80;99.90;;;;;;5010118;28;20068;-73
2021/04/25 06:03:55;;;;;;;14.25;8.88;;;6.00;99.90;;;;;;5010406;28;20026;-71
2021/04/25 06:06:20;;;;;;;12.32;8.30;;;6.00;99.90;;;;;;5010927;28;20103;-71
2021/04/25 06:08:46;;;;;;;14.43;7.90;;;6.10;99.90;;;;;;5010391;28;20042;-71
2021/04/25 06:11:12;;;;;;;14.82;7.88;;;6.20;99.90;;;;;;5009902;28;20114;-71
2021/04/25 06:13:37;;;;;;;17.58;8.30;;;6.30;99.90;;;;;;5009614;28;20314;-71
2021/04/25 06:16:04;;;;;;;13.38;8.07;;;6.40;99.90;;;;;;5010366;28;20022;-72
2021/04/25 06:18:29;;;;;;;16.27;8.18;;;6.40;99.90;;;;;;5009199;28;20066;-72
2021/04/25 06:20:55;;;;;;;17.98;7.85;;;6.60;99.90;;;;;;4992942;28;20057;-72
2021/04/25 06:23:21;;;;;;;12.02;7.55;;;6.50;99.90;;;;;;4992657;28;20030;-71
2021/04/25 06:25:47;;;;;;;11.05;7.00;;;6.60;99.90;;;;;;5010496;28;20034;-73
2021/04/25 06:28:13;;;;;;;14.40;7.85;;;7.00;99.90;;;;;;5009708;28;20044;-72
2021/04/25 06:30:39;;;;;;;12.40;7.38;;;7.10;99.90;;;;;;5010128;28;20428;-72
2021/04/25 06:33:05;;;;;;;12.98;7.25;;;7.10;99.90;;;;;;5009974;28;20022;-72
2021/04/25 06:35:31;;;;;;;11.50;8.02;;;7.20;99.90;;;;;;5010587;28;20093;-72
2021/04/25 06:37:57;;;;;;;21.27;7.97;;;7.40;99.90;;;;;;5009608;28;20535;-72
2021/04/25 06:40:23;;;;;;;13.07;7.15;;;7.50;99.90;;;;;;4994158;28;20036;-79
2021/04/25 06:42:48;;;;;;;11.52;7.47;;;7.50;99.90;;;;;;5010051;28;20034;-72
2021/04/25 06:45:17;;;;;;;11.80;6.82;;;7.70;99.90;;;;;;5009818;28;20562;-72
2021/04/25 06:47:43;;;;;;;13.85;6.72;;;7.80;99.90;;;;;;5010078;28;20033;-72
2021/04/25 06:50:11;;;;;;;12.63;7.18;;;7.90;99.90;;;;;;5010749;28;20472;-72
2021/04/25 06:52:42;;;;;;;10.52;6.90;;;7.90;99.90;;;;;;4993608;28;20050;-75
2021/04/25 06:55:10;;;;;;;16.25;7.28;;;8.00;99.90;;;;;;5011421;28;20061;-71
2021/04/25 06:57:36;;;;;;;12.07;6.60;;;8.10;99.90;;;;;;5011394;28;20539;-75
2021/04/25 07:00:04;;;;;;;11.82;6.93;;;8.20;99.90;;;;;;4994305;28;20029;-70
2021/04/25 07:02:30;;;;;;;13.00;7.40;;;8.30;99.90;;;;;;5010501;28;20045;-69
2021/04/25 07:04:56;;;;;;;13.68;7.10;;;8.20;99.90;;;;;;5010225;28;20028;-73
2021/04/25 07:07:22;;;;;;;11.70;7.68;;;8.40;99.90;;;;;;5011590;28;20516;-73
2021/04/25 07:09:47;;;;;;;15.50;8.40;;;8.50;99.90;;;;;;5012858;28;20392;-73
2021/04/25 07:12:13;;;;;;;12.43;7.47;;;8.70;99.90;;;;;;5011466;28;20382;-74
2021/04/25 07:14:38;;;;;;;9.57;7.65;;;9.00;99.90;;;;;;5014378;28;20036;-73
2021/04/25 07:17:04;;;;;;;11.82;8.27;;;9.10;99.90;;;;;;5014611;28;20410;-72
2021/04/25 07:19:31;;;;;;;12.98;7.57;;;9.20;99.90;;;;;;5013515;28;20113;-73
2021/04/25 07:21:58;;;;;;;12.10;7.75;;;9.20;99.90;;;;;;5012991;28;20018;-73
2021/04/25 07:24:24;;;;;;;20.00;7.80;;;9.30;99.90;;;;;;5013971;28;20025;-73
2021/04/25 07:26:49;;;;;;;15.00;8.30;;;9.50;99.90;;;;;;5011983;28;20036;-72
2021/04/25 07:29:15;;;;;;;14.68;7.53;;;9.60;99.90;;;;;;5011864;28;20034;-73
2021/04/25 07:31:42;;;;;;;13.70;7.75;;;9.80;99.90;;;;;;5012538;28;20368;-75
2021/04/25 07:34:08;;;;;;;14.57;7.82;;;10.00;99.90;;;;;;5011354;28;20105;-76
2021/04/25 07:36:33;;;;;;;12.43;7.28;;;10.30;99.90;;;;;;5011728;28;20504;-73
2021/04/25 07:38:59;;;;;;;14.30;8.32;;;10.50;99.90;;;;;;5011023;28;20054;-75
2021/04/25 07:41:25;;;;;;;13.10;8.48;;;10.90;99.90;;;;;;5010016;28;20030;-75
2021/04/25 07:43:51;;;;;;;15.60;8.48;;;11.10;99.90;;;;;;4992014;28;20030;-73
2021/04/25 07:46:17;;;;;;;12.07;7.97;;;11.50;99.90;;;;;;5007720;28;20046;-74
2021/04/25 07:48:44;;;;;;;16.25;8.35;;;11.50;99.90;;;;;;5011421;28;20033;-75
2021/04/25 07:51:09;;;;;;;15.18;9.02;;;11.30;99.90;;;;;;5012035;28;20033;-72
2021/04/25 07:53:35;;;;;;;15.02;8.13;;;11.20;99.90;;;;;;5009896;28;20415;-73
2021/04/25 07:56:02;;;;;;;15.35;8.93;;;11.30;99.90;;;;;;5010474;28;20018;-74
2021/04/25 07:58:28;;;;;;;12.20;8.23;;;11.50;99.90;;;;;;5010929;28;20520;-72
2021/04/25 08:00:54;;;;;;;16.23;8.48;;;11.70;99.90;;;;;;5010807;28;20064;-73
2021/04/25 08:03:19;;;;;;;14.27;8.35;;;11.60;99.90;;;;;;5010383;28;20034;-73
2021/04/25 08:05:45;;;;;;;16.85;8.48;;;11.80;99.90;;;;;;5011575;28;20033;-74
2021/04/25 08:08:11;;;;;;;14.35;8.95;;;12.20;99.90;;;;;;5014230;28;20022;-74
2021/04/25 08:10:36;;;;;;;14.43;7.65;;;12.50;99.90;;;;;;5015227;28;20445;-72
2021/04/25 08:13:02;;;;;;;14.35;8.75;;;12.70;99.90;;;;;;5018815;28;20041;-75
2021/04/25 08:15:28;;;;;;;16.90;8.77;;;12.90;99.90;;;;;;4997500;28;20026;-74
2021/04/25 08:17:56;;;;;;;13.32;9.20;;;12.90;99.90;;;;;;5000482;28;20026;-74
2021/04/25 08:20:22;;;;;;;13.35;9.55;;;12.90;99.90;;;;;;5023677;28;20496;-75
2021/04/25 08:22:48;;;;;;;15.10;9.90;;;12.60;99.90;;;;;;5009531;28;20026;-73
2021/04/25 08:25:14;;;;;;;17.52;8.98;;;13.00;99.90;;;;;;5017714;28;20076;-75
2021/04/25 08:27:40;;;;;;;15.75;9.75;;;13.60;99.90;;;;;;5020352;28;20212;-74
2021/04/25 08:30:06;;;;;;;12.85;9.18;;;14.30;99.20;;;;;;5023534;28;20041;-75
2021/04/25 08:32:32;;;;;;;15.00;9.52;;;14.20;98.90;;;;;;5021610;28;20026;-73
2021/04/25 08:34:58;;;;;;;15.30;10.15;;;14.80;97.20;;;;;;4990951;28;20137;-74
2021/04/25 08:37:24;;;;;;;14.52;9.43;;;15.40;96.70;;;;;;5000350;28;20061;-73
2021/04/25 08:39:50;;;;;;;18.48;9.23;;;16.10;95.70;;;;;;5024122;28;20028;-73
2021/04/25 08:42:15;;;;;;;16.70;9.77;;;15.50;93.30;;;;;;5021446;28;20026;-71
2021/04/25 08:44:45;;;;;;;11.98;9.88;;;15.40;94.10;;;;;;5026747;28;20053;-72
2021/04/25 08:47:14;;;;;;;14.68;9.98;;;14.80;93.60;;;;;;5024175;28;20030;-73
2021/04/25 08:49:42;;;;;;;13.57;9.30;;;15.40;95.40;;;;;;5022761;28;20024;-73
2021/04/25 08:52:09;;;;;;;16.92;10.40;;;15.60;93.00;;;;;;5007663;28;20018;-72
2021/04/25 08:54:35;;;;;;;12.13;9.10;;;15.50;92.00;;;;;;5022941;28;20633;-71
2021/04/25 08:57:00;;;;;;;14.07;9.05;;;16.00;92.90;;;;;;5024048;28;20034;-73
2021/04/25 08:59:26;;;;;;;14.35;9.85;;;15.80;91.90;;;;;;5004971;28;20125;-73
2021/04/25 09:01:52;;;;;;;14.52;10.05;;;15.80;91.30;;;;;;5005222;28;20042;-73
2021/04/25 09:04:18;;;;;;;15.13;10.40;;;15.90;90.50;;;;;;5005908;28;20085;-73
2021/04/25 09:07:06;;;;;;;14.50;9.50;;;15.80;91.00;;;;;;5024472;28;20044;-71
2021/04/25 09:09:43;;;;;;;11.02;9.30;;;16.00;90.50;;;;;;5006762;28;20029;-74
2021/04/25 09:12:09;;;;;;;14.93;9.70;;;16.20;90.10;;;;;;5023759;28;20026;-73
2021/04/25 09:14:38;;;;;;;13.73;9.52;;;16.40;89.30;;;;;;5020391;28;20026;-73
2021/04/25 09:17:05;;;;;;;12.95;8.70;;;16.40;88.70;;;;;;5005206;28;20033;-75
2021/04/25 09:19:56;;;;;;;15.35;9.63;;;16.80;88.00;;;;;;5020152;28;20101;-74
2021/04/25 09:22:40;;;;;;;10.82;8.52;;;17.60;84.20;;;;;;5023151;28;20025;-75
2021/04/25 09:25:15;;;;;;;12.40;8.80;;;18.10;80.90;;;;;;5021663;28;20433;-74
2021/04/25 09:27:43;;;;;;;15.57;9.65;;;18.30;78.30;;;;;;5022196;28;20033;-72
2021/04/25 09:30:10;;;;;;;12.93;8.70;;;17.20;79.90;;;;;;4985357;28;20030;-74
2021/04/25 09:32:36;;;;;;;11.48;8.27;;;17.60;82.30;;;;;;5009402;28;20058;-73
2021/04/25 09:35:08;;;;;;;13.63;8.65;;;18.60;79.30;;;;;;5005867;28;20556;-73
2021/04/25 09:37:37;;;;;;;12.30;7.43;;;19.10;76.20;;;;;;5042852;23;20060;-70
2021/04/25 09:40:08;;;;;;;16.92;10.02;;;18.30;77.40;;;;;;5032236;28;20025;-70
2021/04/25 09:43:03;;;;;;;12.38;8.77;;;17.80;79.90;;;;;;5033044;28;20471;-70
2021/04/25 09:45:31;;;;;;;13.15;9.18;;;19.30;74.10;;;;;;5034273;28;20017;-72
2021/04/25 09:47:59;;;;;;;15.20;9.18;;;19.30;73.30;;;;;;5030376;28;20055;-70
2021/04/25 09:50:25;;;;;;;11.88;9.00;;;19.70;69.40;;;;;;5021502;28;20109;-70
2021/04/25 09:52:51;;;;;;;13.98;9.23;;;20.70;69.90;;;;;;5019087;28;20018;-71
2021/04/25 09:55:20;;;;;;;9.23;7.50;;;21.40;65.20;;;;;;5020131;28;20018;-71
2021/04/25 09:57:48;;;;;;;10.27;7.82;;;22.00;63.80;;;;;;5022714;28;20028;-69
2021/04/25 10:00:15;;;;;;;15.23;8.65;;;21.90;62.10;;;;;;5022870;28;20057;-69
2021/04/25 10:03:10;;;;;;;9.43;6.10;;;21.50;61.70;;;;;;5021807;28;20110;-69
2021/04/25 10:05:55;;;;;;;8.43;6.47;;;22.60;56.50;;;;;;5005363;28;20049;-69
2021/04/25 10:08:38;;;;;;;8.32;6.25;;;22.10;54.60;;;;;;5021450;28;20470;-69
2021/04/25 10:11:07;;;;;;;7.55;6.22;;;19.80;57.90;;;;;;5022455;28;20552;-69
2021/04/25 10:13:35;;;;;;;15.80;7.38;;;19.00;57.60;;;;;;5021241;28;20078;-71
2021/04/25 10:16:02;;;;;;;11.50;7.70;;;19.10;63.30;;;;;;5020959;28;20030;-69
2021/04/25 10:18:28;;;;;;;9.18;6.88;;;20.80;59.90;;;;;;5026556;28;20041;-70
2021/04/25 10:20:55;;;;;;;9.98;6.30;;;21.10;56.30;;;;;;5033440;28;20018;-70
2021/04/25 10:23:23;;;;;;;9.23;7.18;;;20.60;58.80;;;;;;5034088;28;20029;-70
2021/04/25 10:25:51;;;;;;;10.65;7.40;;;20.00;58.80;;;;;;5027221;28;20025;-68
2021/04/25 10:28:34;;;;;;;8.13;6.70;;;19.70;60.10;;;;;;5020511;28;20018;-70
2021/04/25 10:31:02;;;;;;;11.07;7.65;;;18.10;60.70;;;;;;5023682;28;20025;-70
2021/04/25 10:33:50;;;;;;;9.90;7.35;;;18.30;62.80;;;;;;5027128;28;20033;-71
2021/04/25 10:36:16;;;;;;;9.70;7.25;;;18.60;61.80;;;;;;5026993;28;20435;-70
2021/04/25 10:38:42;;;;;;;13.15;7.40;;;19.30;58.60;;;;;;5022445;28;20034;-70
2021/04/25 10:41:28;;;;;;;9.27;6.97;;;18.80;60.40;;;;;;5014126;28;20084;-70
2021/04/25 10:44:05;;;;;;;11.77;6.45;;;18.50;61.00;;;;;;5010877;28;20033;-70
2021/04/25 10:46:55;;;;;;;10.02;7.10;;;19.60;62.50;;;;;;5012060;28;20527;-69
2021/04/25 10:49:31;;;;;;;13.52;8.07;;;21.10;57.50;;;;;;5012332;28;20436;-70
2021/04/25 10:52:20;;;;;;;9.95;6.70;;;20.90;60.00;;;;;;5012327;28;20081;-70
2021/04/25 10:55:14;;;;;;;10.80;8.30;;;22.60;58.90;;;;;;5011735;28;20476;-71
2021/04/25 10:57:56;;;;;;;9.82;8.07;;;23.70;53.70;;;;;;5012283;28;20057;-70
2021/04/25 11:00:31;;;;;;;14.32;8.00;;;23.00;52.90;;;;;;5012354;28;20399;-69
2021/04/25 11:03:05;;;;;;;10.57;6.93;;;19.40;60.20;;;;;;5011936;28;20396;-69
2021/04/25 11:08:03;;;;;;;10.27;6.32;;;21.20;54.90;;;;;;5031574;28;20133;-69
2021/04/25 11:10:54;;;;;;;9.40;6.50;;;22.10;54.30;;;;;;5031890;28;20044;-72
2021/04/25 11:13:46;;;;;;;9.35;6.30;;;23.10;51.90;;;;;;5030955;28;20800;-68
2021/04/25 11:16:27;;;;;;;7.70;5.78;;;21.90;52.00;;;;;;5008972;28;20407;-72
2021/04/25 11:18:54;;;;;;;5.63;5.00;;;21.40;56.70;;;;;;5030104;28;20033;-74
2021/04/25 11:21:47;;;;;;;8.40;5.15;;;21.90;57.20;;;;;;5012685;28;20022;-74
2021/04/25 11:24:12;;;;;;;10.65;6.00;;;22.10;59.10;;;;;;5011380;28;20022;-70
2021/04/25 11:26:53;;;;;;;9.40;6.10;;;22.00;54.70;;;;;;5020668;28;20026;-69
2021/04/25 11:29:21;;;;;;;5.72;5.20;;;23.40;51.80;;;;;;5021353;28;20026;-69
2021/04/25 11:31:54;;;;;;;8.50;5.88;;;22.60;48.50;;;;;;5020578;28;20022;-69
2021/04/25 11:34:32;;;;;;;8.80;5.60;;;21.40;51.60;;;;;;5018425;28;20034;-70
2021/04/25 11:36:57;;;;;;;5.72;5.10;;;22.10;52.20;;;;;;5016659;28;20064;-69
2021/04/25 11:39:27;;;;;;;6.60;5.03;;;22.00;51.30;;;;;;5019798;28;20037;-69
2021/04/25 11:41:53;;;;;;;10.52;6.20;;;21.80;50.10;;;;;;5021886;28;20025;-69
2021/04/25 11:44:30;;;;;;;7.13;5.65;;;23.10;50.80;;;;;;5020786;28;20029;-69
2021/04/25 11:46:57;;;;;;;7.72;5.03;;;22.00;49.10;;;;;;5019288;28;20033;-69
2021/04/25 11:49:32;;;;;;;10.23;5.80;;;21.50;49.90;;;;;;5021330;28;20076;-69
2021/04/25 11:52:23;;;;;;;9.18;5.80;;;20.70;49.40;;;;;;5029359;28;20017;-69
2021/04/25 11:54:59;;;;;;;6.70;4.80;;;21.30;49.80;;;;;;5020842;28;20409;-68
2021/04/25 11:57:26;;;;;;;8.30;5.50;;;20.70;51.40;;;;;;5025585;28;20053;-70
2021/04/25 11:59:57;;;;;;;6.93;5.75;;;21.40;51.50;;;;;;5021464;28;20033;-73
2021/04/25 12:02:25;;;;;;;6.43;5.10;;;22.70;51.80;;;;;;5022082;28;20029;-70
2021/04/25 12:04:57;;;;;;;8.48;5.63;;;23.50;49.30;;;;;;5023028;28;20357;-70
2021/04/25 12:07:33;;;;;;;8.67;5.53;;;24.20;46.50;;;;;;5008687;28;20038;-70
2021/04/25 12:09:59;;;;;;;6.63;5.80;;;23.90;46.30;;;;;;5023501;28;20017;-73
2021/04/25 12:12:25;;;;;;;8.20;6.35;;;22.60;46.70;;;;;;5030115;28;20041;-72
2021/04/25 12:15:06;;;;;;;8.32;5.32;;;22.40;49.00;;;;;;5024002;28;20022;-72
2021/04/25 12:17:32;;;;;;;7.82;5.45;;;21.30;51.70;;;;;;5006103;28;20029;-73
2021/04/25 12:20:03;;;;;;;8.63;5.28;;;20.50;51.80;;;;;;5024760;28;20085;-71
2021/04/25 12:22:29;;;;;;;8.32;6.07;;;21.10;51.20;;;;;;5005021;28;20112;-73
2021/04/25 12:25:02;;;;;;;7.22;5.30;;;22.10;49.20;;;;;;5024043;28;20029;-73
2021/04/25 12:27:28;;;;;;;8.38;5.07;;;21.20;50.00;;;;;;5023290;28;20089;-73
2021/04/25 12:29:53;;;;;;;7.22;4.78;;;22.00;48.80;;;;;;5005698;28;20025;-72
2021/04/25 12:32:22;;;;;;;6.55;4.45;;;22.50;48.90;;;;;;5025031;28;20518;-72
2021/04/25 12:34:59;;;;;;;11.10;5.55;;;22.60;45.90;;;;;;5026872;28;20455;-70
2021/04/25 12:37:40;;;;;;;6.82;4.97;;;21.60;47.70;;;;;;5024480;28;20111;-72
2021/04/25 12:40:32;;;;;;;7.17;5.03;;;22.70;49.30;;;;;;5007351;28;20112;-71
2021/04/25 12:43:28;;;;;;;5.85;5.00;;;21.60;47.80;;;;;;5029543;28;20260;-72
2021/04/25 12:45:55;;;;;;;11.75;4.70;;;22.00;48.40;;;;;;5012093;28;20041;-72
2021/04/25 12:48:35;;;;;;;4.82;4.43;;;22.00;48.70;;;;;;5011886;28;20404;-72
2021/04/25 12:51:02;;;;;;;7.38;4.43;;;22.70;49.80;;;;;;5028394;28;20022;-71